sensor_id;sensor_type;location;lat;lon;timestamp;temperature;humidity
41116;DHT22;26861;51.824;4.682;2023-04-03T00:01:02;16.50;56.90
41116;DHT22;26861;51.824;4.682;2023-04-03T00:03:29;16.50;56.90
41116;DHT22;26861;51.824;4.682;2023-04-03T00:05:54;16.50;57.50
41116;DHT22;26861;51.824;4.682;2023-04-03T00:08:21;16.50;56.90
41116;DHT22;26861;51.824;4.682;2023-04-03T00:10:47;16.50;56.90
41116;DHT22;26861;51.824;4.682;2023-04-03T00:13:13;16.50;56.90
41116;DHT22;26861;51.824;4.682;2023-04-03T00:15:39;16.50;56.90
41116;DHT22;26861;51.824;4.682;2023-04-03T00:18:05;16.50;56.90
41116;DHT22;26861;51.824;4.682;2023-04-03T00:20:32;16.40;56.80
41116;DHT22;26861;51.824;4.682;2023-04-03T00:22:58;16.40;57.20
41116;DHT22;26861;51.824;4.682;2023-04-03T00:25:23;16.40;56.80
41116;DHT22;26861;51.824;4.682;2023-04-03T00:27:49;16.50;56.80
41116;DHT22;26861;51.824;4.682;2023-04-03T00:30:18;16.40;56.80
41116;DHT22;26861;51.824;4.682;2023-04-03T00:32:43;16.40;56.80
41116;DHT22;26861;51.824;4.682;2023-04-03T00:35:09;16.40;57.40
41116;DHT22;26861;51.824;4.682;2023-04-03T00:37:36;16.40;56.80
41116;DHT22;26861;51.824;4.682;2023-04-03T00:40:02;16.40;56.80
41116;DHT22;26861;51.824;4.682;2023-04-03T00:42:28;16.40;56.70
41116;DHT22;26861;51.824;4.682;2023-04-03T00:47:23;16.40;56.90
41116;DHT22;26861;51.824;4.682;2023-04-03T00:49:50;16.40;56.70
41116;DHT22;26861;51.824;4.682;2023-04-03T00:52:19;16.40;56.70
41116;DHT22;26861;51.824;4.682;2023-04-03T00:54:47;16.40;56.70
41116;DHT22;26861;51.824;4.682;2023-04-03T00:57:14;16.40;56.70
41116;DHT22;26861;51.824;4.682;2023-04-03T00:59:48;16.40;56.70
41116;DHT22;26861;51.824;4.682;2023-04-03T01:02:16;16.40;56.60
41116;DHT22;26861;51.824;4.682;2023-04-03T01:04:43;16.40;56.70
41116;DHT22;26861;51.824;4.682;2023-04-03T01:07:16;16.40;56.70
41116;DHT22;26861;51.824;4.682;2023-04-03T01:09:42;16.30;56.60
41116;DHT22;26861;51.824;4.682;2023-04-03T01:12:24;16.30;56.60
41116;DHT22;26861;51.824;4.682;2023-04-03T01:14:55;16.30;56.60
41116;DHT22;26861;51.824;4.682;2023-04-03T01:17:42;16.30;56.60
41116;DHT22;26861;51.824;4.682;2023-04-03T01:25:28;16.30;56.50
41116;DHT22;26861;51.824;4.682;2023-04-03T01:27:54;16.30;56.60
41116;DHT22;26861;51.824;4.682;2023-04-03T01:30:21;16.30;56.60
41116;DHT22;26861;51.824;4.682;2023-04-03T01:32:48;16.30;56.50
41116;DHT22;26861;51.824;4.682;2023-04-03T01:35:14;16.20;56.50
41116;DHT22;26861;51.824;4.682;2023-04-03T01:37:40;16.20;56.50
41116;DHT22;26861;51.824;4.682;2023-04-03T01:40:06;16.20;56.50
41116;DHT22;26861;51.824;4.682;2023-04-03T01:42:32;16.20;56.50
41116;DHT22;26861;51.824;4.682;2023-04-03T01:44:58;16.20;56.50
41116;DHT22;26861;51.824;4.682;2023-04-03T01:47:24;16.20;56.50
41116;DHT22;26861;51.824;4.682;2023-04-03T01:49:50;16.20;56.50
41116;DHT22;26861;51.824;4.682;2023-04-03T01:52:16;16.20;56.40
41116;DHT22;26861;51.824;4.682;2023-04-03T01:54:42;16.20;56.40
41116;DHT22;26861;51.824;4.682;2023-04-03T01:57:08;16.20;56.40
41116;DHT22;26861;51.824;4.682;2023-04-03T01:59:34;16.20;56.40
41116;DHT22;26861;51.824;4.682;2023-04-03T02:02:00;16.20;56.40
41116;DHT22;26861;51.824;4.682;2023-04-03T02:04:26;16.10;56.40
41116;DHT22;26861;51.824;4.682;2023-04-03T02:06:52;16.10;56.40
41116;DHT22;26861;51.824;4.682;2023-04-03T02:09:18;16.10;56.40
41116;DHT22;26861;51.824;4.682;2023-04-03T02:11:44;16.10;56.30
41116;DHT22;26861;51.824;4.682;2023-04-03T02:14:10;16.10;56.30
41116;DHT22;26861;51.824;4.682;2023-04-03T02:16:36;16.10;56.30
41116;DHT22;26861;51.824;4.682;2023-04-03T02:19:02;16.10;56.30
41116;DHT22;26861;51.824;4.682;2023-04-03T02:21:28;16.10;56.30
41116;DHT22;26861;51.824;4.682;2023-04-03T02:23:54;16.10;56.30
41116;DHT22;26861;51.824;4.682;2023-04-03T02:26:20;16.10;56.30
41116;DHT22;26861;51.824;4.682;2023-04-03T02:28:46;16.10;56.30
41116;DHT22;26861;51.824;4.682;2023-04-03T02:31:12;16.10;56.30
41116;DHT22;26861;51.824;4.682;2023-04-03T02:33:39;16.00;56.20
41116;DHT22;26861;51.824;4.682;2023-04-03T02:36:06;16.10;56.20
41116;DHT22;26861;51.824;4.682;2023-04-03T02:38:33;16.00;56.20
41116;DHT22;26861;51.824;4.682;2023-04-03T02:41:03;16.50;56.40
41116;DHT22;26861;51.824;4.682;2023-04-03T02:43:30;16.00;56.20
41116;DHT22;26861;51.824;4.682;2023-04-03T02:45:56;16.00;56.20
41116;DHT22;26861;51.824;4.682;2023-04-03T02:48:22;16.00;56.10
41116;DHT22;26861;51.824;4.682;2023-04-03T02:50:48;16.00;56.10
41116;DHT22;26861;51.824;4.682;2023-04-03T02:53:14;16.00;56.10
41116;DHT22;26861;51.824;4.682;2023-04-03T02:55:40;16.00;56.20
41116;DHT22;26861;51.824;4.682;2023-04-03T02:58:06;16.00;56.10
41116;DHT22;26861;51.824;4.682;2023-04-03T03:00:32;16.00;56.10
41116;DHT22;26861;51.824;4.682;2023-04-03T03:02:58;15.90;56.10
41116;DHT22;26861;51.824;4.682;2023-04-03T03:05:23;15.90;56.10
41116;DHT22;26861;51.824;4.682;2023-04-03T03:07:49;15.90;56.10
41116;DHT22;26861;51.824;4.682;2023-04-03T03:10:15;15.90;56.00
41116;DHT22;26861;51.824;4.682;2023-04-03T03:12:41;15.90;56.10
41116;DHT22;26861;51.824;4.682;2023-04-03T03:15:07;15.90;56.00
41116;DHT22;26861;51.824;4.682;2023-04-03T03:17:33;15.90;56.10
41116;DHT22;26861;51.824;4.682;2023-04-03T03:19:59;15.90;56.00
41116;DHT22;26861;51.824;4.682;2023-04-03T03:22:25;15.90;56.10
41116;DHT22;26861;51.824;4.682;2023-04-03T03:24:51;15.90;56.00
41116;DHT22;26861;51.824;4.682;2023-04-03T03:27:17;15.90;56.10
41116;DHT22;26861;51.824;4.682;2023-04-03T03:29:43;15.80;56.00
41116;DHT22;26861;51.824;4.682;2023-04-03T03:32:09;15.80;56.00
41116;DHT22;26861;51.824;4.682;2023-04-03T03:34:35;15.80;56.10
41116;DHT22;26861;51.824;4.682;2023-04-03T03:37:01;15.80;56.10
41116;DHT22;26861;51.824;4.682;2023-04-03T03:39:28;15.80;56.00
41116;DHT22;26861;51.824;4.682;2023-04-03T03:41:54;15.80;56.00
41116;DHT22;26861;51.824;4.682;2023-04-03T03:44:21;15.80;56.00
41116;DHT22;26861;51.824;4.682;2023-04-03T03:46:47;15.80;56.00
41116;DHT22;26861;51.824;4.682;2023-04-03T03:49:13;15.80;56.00
41116;DHT22;26861;51.824;4.682;2023-04-03T03:51:39;15.80;56.00
41116;DHT22;26861;51.824;4.682;2023-04-03T03:54:06;15.80;56.00
41116;DHT22;26861;51.824;4.682;2023-04-03T03:56:33;15.70;55.90
41116;DHT22;26861;51.824;4.682;2023-04-03T03:58:59;15.80;56.00
41116;DHT22;26861;51.824;4.682;2023-04-03T04:10:44;15.70;55.90
41116;DHT22;26861;51.824;4.682;2023-04-03T04:13:10;15.70;56.10
41116;DHT22;26861;51.824;4.682;2023-04-03T04:15:35;15.70;56.00
41116;DHT22;26861;51.824;4.682;2023-04-03T04:18:01;15.70;56.10
41116;DHT22;26861;51.824;4.682;2023-04-03T04:20:27;15.70;56.00
41116;DHT22;26861;51.824;4.682;2023-04-03T04:22:53;15.60;56.00
41116;DHT22;26861;51.824;4.682;2023-04-03T04:25:18;15.70;56.00
41116;DHT22;26861;51.824;4.682;2023-04-03T04:27:44;15.70;56.10
41116;DHT22;26861;51.824;4.682;2023-04-03T04:30:10;15.60;56.00
41116;DHT22;26861;51.824;4.682;2023-04-03T04:32:36;15.60;56.00
41116;DHT22;26861;51.824;4.682;2023-04-03T04:35:03;15.60;56.00
41116;DHT22;26861;51.824;4.682;2023-04-03T04:37:29;15.60;56.00
41116;DHT22;26861;51.824;4.682;2023-04-03T04:39:55;15.60;56.00
41116;DHT22;26861;51.824;4.682;2023-04-03T04:42:20;15.60;56.00
41116;DHT22;26861;51.824;4.682;2023-04-03T04:44:46;15.60;56.00
41116;DHT22;26861;51.824;4.682;2023-04-03T04:47:12;15.60;56.00
41116;DHT22;26861;51.824;4.682;2023-04-03T04:49:37;15.50;56.00
41116;DHT22;26861;51.824;4.682;2023-04-03T04:52:03;15.50;56.00
41116;DHT22;26861;51.824;4.682;2023-04-03T04:54:28;15.50;56.00
41116;DHT22;26861;51.824;4.682;2023-04-03T04:56:54;15.50;56.00
41116;DHT22;26861;51.824;4.682;2023-04-03T04:59:20;15.50;56.00
41116;DHT22;26861;51.824;4.682;2023-04-03T05:01:46;15.50;56.10
41116;DHT22;26861;51.824;4.682;2023-04-03T05:04:12;15.50;56.00
41116;DHT22;26861;51.824;4.682;2023-04-03T05:06:38;15.50;56.00
41116;DHT22;26861;51.824;4.682;2023-04-03T05:09:04;15.50;55.90
41116;DHT22;26861;51.824;4.682;2023-04-03T05:11:30;15.50;56.60
41116;DHT22;26861;51.824;4.682;2023-04-03T05:13:56;15.40;56.00
41116;DHT22;26861;51.824;4.682;2023-04-03T05:16:21;15.50;56.00
41116;DHT22;26861;51.824;4.682;2023-04-03T05:18:47;15.50;56.10
41116;DHT22;26861;51.824;4.682;2023-04-03T05:21:13;15.50;56.00
41116;DHT22;26861;51.824;4.682;2023-04-03T05:23:39;15.50;56.00
41116;DHT22;26861;51.824;4.682;2023-04-03T05:26:04;15.40;56.00
41116;DHT22;26861;51.824;4.682;2023-04-03T05:28:30;15.40;56.00
41116;DHT22;26861;51.824;4.682;2023-04-03T05:30:57;15.40;56.10
41116;DHT22;26861;51.824;4.682;2023-04-03T05:33:24;15.40;56.10
41116;DHT22;26861;51.824;4.682;2023-04-03T05:35:50;15.40;56.00
41116;DHT22;26861;51.824;4.682;2023-04-03T05:38:16;15.40;56.00
41116;DHT22;26861;51.824;4.682;2023-04-03T05:40:41;15.40;56.70
41116;DHT22;26861;51.824;4.682;2023-04-03T05:43:07;15.30;56.00
41116;DHT22;26861;51.824;4.682;2023-04-03T05:45:33;15.40;56.00
41116;DHT22;26861;51.824;4.682;2023-04-03T05:47:58;15.30;55.90
41116;DHT22;26861;51.824;4.682;2023-04-03T05:50:24;15.30;55.90
41116;DHT22;26861;51.824;4.682;2023-04-03T05:52:52;15.40;56.60
41116;DHT22;26861;51.824;4.682;2023-04-03T05:55:20;15.30;55.90
41116;DHT22;26861;51.824;4.682;2023-04-03T05:57:46;15.30;55.90
41116;DHT22;26861;51.824;4.682;2023-04-03T06:00:15;15.30;55.90
41116;DHT22;26861;51.824;4.682;2023-04-03T06:02:42;15.30;55.80
41116;DHT22;26861;51.824;4.682;2023-04-03T06:05:08;15.30;55.90
41116;DHT22;26861;51.824;4.682;2023-04-03T06:07:35;15.30;55.80
41116;DHT22;26861;51.824;4.682;2023-04-03T06:10:02;15.30;55.80
41116;DHT22;26861;51.824;4.682;2023-04-03T06:12:28;15.30;55.80
41116;DHT22;26861;51.824;4.682;2023-04-03T06:14:55;15.30;55.70
41116;DHT22;26861;51.824;4.682;2023-04-03T06:17:21;15.30;55.70
41116;DHT22;26861;51.824;4.682;2023-04-03T06:19:48;15.30;55.70
41116;DHT22;26861;51.824;4.682;2023-04-03T06:22:14;15.30;55.70
41116;DHT22;26861;51.824;4.682;2023-04-03T06:24:41;15.30;55.70
41116;DHT22;26861;51.824;4.682;2023-04-03T06:27:07;15.30;55.60
41116;DHT22;26861;51.824;4.682;2023-04-03T06:29:33;15.30;55.60
41116;DHT22;26861;51.824;4.682;2023-04-03T06:31:59;15.30;55.60
41116;DHT22;26861;51.824;4.682;2023-04-03T06:34:25;15.20;55.50
41116;DHT22;26861;51.824;4.682;2023-04-03T06:36:51;15.20;55.50
41116;DHT22;26861;51.824;4.682;2023-04-03T06:39:19;15.20;55.50
41116;DHT22;26861;51.824;4.682;2023-04-03T06:41:51;15.20;55.50
41116;DHT22;26861;51.824;4.682;2023-04-03T06:44:17;15.20;55.50
41116;DHT22;26861;51.824;4.682;2023-04-03T06:46:44;15.20;56.10
41116;DHT22;26861;51.824;4.682;2023-04-03T06:49:11;15.20;55.40
41116;DHT22;26861;51.824;4.682;2023-04-03T06:51:37;15.20;55.40
41116;DHT22;26861;51.824;4.682;2023-04-03T06:54:04;15.20;55.40
41116;DHT22;26861;51.824;4.682;2023-04-03T06:56:32;15.20;55.40
41116;DHT22;26861;51.824;4.682;2023-04-03T06:58:58;15.20;55.30
41116;DHT22;26861;51.824;4.682;2023-04-03T07:01:26;15.10;64.60
41116;DHT22;26861;51.824;4.682;2023-04-03T07:03:54;15.20;55.40
41116;DHT22;26861;51.824;4.682;2023-04-03T07:06:20;15.10;55.40
41116;DHT22;26861;51.824;4.682;2023-04-03T07:08:47;15.20;55.40
41116;DHT22;26861;51.824;4.682;2023-04-03T07:11:15;15.20;55.40
41116;DHT22;26861;51.824;4.682;2023-04-03T07:13:42;15.20;55.50
41116;DHT22;26861;51.824;4.682;2023-04-03T07:16:08;15.20;55.50
41116;DHT22;26861;51.824;4.682;2023-04-03T07:18:35;15.20;55.70
41116;DHT22;26861;51.824;4.682;2023-04-03T07:21:01;15.10;55.70
41116;DHT22;26861;51.824;4.682;2023-04-03T07:23:28;15.10;55.80
41116;DHT22;26861;51.824;4.682;2023-04-03T07:25:54;15.10;55.90
41116;DHT22;26861;51.824;4.682;2023-04-03T07:28:21;15.10;55.90
41116;DHT22;26861;51.824;4.682;2023-04-03T07:30:50;15.10;56.10
41116;DHT22;26861;51.824;4.682;2023-04-03T07:33:18;15.10;56.20
41116;DHT22;26861;51.824;4.682;2023-04-03T07:35:45;15.10;56.40
41116;DHT22;26861;51.824;4.682;2023-04-03T07:38:11;15.10;56.30
41116;DHT22;26861;51.824;4.682;2023-04-03T07:40:37;15.10;56.50
41116;DHT22;26861;51.824;4.682;2023-04-03T07:43:04;15.10;56.70
41116;DHT22;26861;51.824;4.682;2023-04-03T07:45:31;15.00;56.80
41116;DHT22;26861;51.824;4.682;2023-04-03T07:47:57;15.00;57.10
41116;DHT22;26861;51.824;4.682;2023-04-03T07:50:23;15.00;57.30
41116;DHT22;26861;51.824;4.682;2023-04-03T07:52:49;15.00;57.50
41116;DHT22;26861;51.824;4.682;2023-04-03T07:55:16;15.00;57.60
41116;DHT22;26861;51.824;4.682;2023-04-03T07:57:42;15.00;57.80
41116;DHT22;26861;51.824;4.682;2023-04-03T08:00:09;15.00;57.90
41116;DHT22;26861;51.824;4.682;2023-04-03T08:02:36;15.00;57.90
41116;DHT22;26861;51.824;4.682;2023-04-03T08:05:02;15.00;58.00
41116;DHT22;26861;51.824;4.682;2023-04-03T08:07:29;15.10;57.90
41116;DHT22;26861;51.824;4.682;2023-04-03T08:09:55;15.10;57.80
41116;DHT22;26861;51.824;4.682;2023-04-03T08:12:21;15.10;58.00
41116;DHT22;26861;51.824;4.682;2023-04-03T08:14:47;15.10;57.90
41116;DHT22;26861;51.824;4.682;2023-04-03T08:17:13;15.20;58.20
41116;DHT22;26861;51.824;4.682;2023-04-03T08:19:39;15.20;58.30
41116;DHT22;26861;51.824;4.682;2023-04-03T08:22:06;15.20;58.20
41116;DHT22;26861;51.824;4.682;2023-04-03T08:24:33;15.20;58.40
41116;DHT22;26861;51.824;4.682;2023-04-03T08:27:00;15.20;58.40
41116;DHT22;26861;51.824;4.682;2023-04-03T08:29:26;15.20;58.30
41116;DHT22;26861;51.824;4.682;2023-04-03T08:31:52;15.30;58.30
41116;DHT22;26861;51.824;4.682;2023-04-03T08:34:19;15.30;58.30
41116;DHT22;26861;51.824;4.682;2023-04-03T08:36:45;15.30;58.40
41116;DHT22;26861;51.824;4.682;2023-04-03T08:39:12;15.30;58.30
41116;DHT22;26861;51.824;4.682;2023-04-03T08:41:43;15.40;58.30
41116;DHT22;26861;51.824;4.682;2023-04-03T08:49:42;15.40;58.50
41116;DHT22;26861;51.824;4.682;2023-04-03T08:52:21;15.40;58.50
41116;DHT22;26861;51.824;4.682;2023-04-03T08:54:57;15.50;58.40
41116;DHT22;26861;51.824;4.682;2023-04-03T08:57:39;15.50;58.50
41116;DHT22;26861;51.824;4.682;2023-04-03T09:00:26;15.60;58.50
41116;DHT22;26861;51.824;4.682;2023-04-03T09:02:56;15.60;58.70
41116;DHT22;26861;51.824;4.682;2023-04-03T09:08:30;15.70;58.50
41116;DHT22;26861;51.824;4.682;2023-04-03T09:14:07;15.70;58.70
41116;DHT22;26861;51.824;4.682;2023-04-03T09:16:43;15.70;58.30
41116;DHT22;26861;51.824;4.682;2023-04-03T09:22:26;15.80;58.50
41116;DHT22;26861;51.824;4.682;2023-04-03T09:25:14;15.90;58.40
41116;DHT22;26861;51.824;4.682;2023-04-03T09:27:40;15.90;58.40
41116;DHT22;26861;51.824;4.682;2023-04-03T09:30:13;15.90;58.40
41116;DHT22;26861;51.824;4.682;2023-04-03T09:32:40;16.00;58.40
41116;DHT22;26861;51.824;4.682;2023-04-03T09:35:20;16.10;58.30
41116;DHT22;26861;51.824;4.682;2023-04-03T09:37:50;16.10;58.10
41116;DHT22;26861;51.824;4.682;2023-04-03T09:42:54;16.20;58.10
41116;DHT22;26861;51.824;4.682;2023-04-03T09:45:29;16.20;58.00
41116;DHT22;26861;51.824;4.682;2023-04-03T09:48:17;16.30;57.60
41116;DHT22;26861;51.824;4.682;2023-04-03T09:51:01;16.30;57.50
41116;DHT22;26861;51.824;4.682;2023-04-03T09:53:46;16.40;57.30
41116;DHT22;26861;51.824;4.682;2023-04-03T09:59:05;16.50;57.30
41116;DHT22;26861;51.824;4.682;2023-04-03T10:01:37;16.80;65.80
41116;DHT22;26861;51.824;4.682;2023-04-03T10:04:15;16.60;56.90
41116;DHT22;26861;51.824;4.682;2023-04-03T10:09:28;16.70;56.80
41116;DHT22;26861;51.824;4.682;2023-04-03T10:14:38;16.80;56.60
41116;DHT22;26861;51.824;4.682;2023-04-03T10:28:00;17.10;55.60
41116;DHT22;26861;51.824;4.682;2023-04-03T10:33:44;17.20;55.00
41116;DHT22;26861;51.824;4.682;2023-04-03T10:44:36;17.40;54.60
41116;DHT22;26861;51.824;4.682;2023-04-03T10:47:24;17.50;54.50
41116;DHT22;26861;51.824;4.682;2023-04-03T10:53:19;17.60;53.50
41116;DHT22;26861;51.824;4.682;2023-04-03T10:55:57;17.70;53.90
41116;DHT22;26861;51.824;4.682;2023-04-03T11:00:54;17.80;52.80
41116;DHT22;26861;51.824;4.682;2023-04-03T11:03:42;17.90;53.70
41116;DHT22;26861;51.824;4.682;2023-04-03T11:06:11;17.90;54.00
41116;DHT22;26861;51.824;4.682;2023-04-03T11:09:01;18.00;54.10
41116;DHT22;26861;51.824;4.682;2023-04-03T11:11:30;18.00;53.40
41116;DHT22;26861;51.824;4.682;2023-04-03T11:16:47;18.20;53.10
41116;DHT22;26861;51.824;4.682;2023-04-03T11:19:20;18.20;53.90
41116;DHT22;26861;51.824;4.682;2023-04-03T11:22:01;18.30;52.70
41116;DHT22;26861;51.824;4.682;2023-04-03T11:24:32;18.30;52.90
41116;DHT22;26861;51.824;4.682;2023-04-03T11:27:00;18.40;52.70
41116;DHT22;26861;51.824;4.682;2023-04-03T11:29:38;18.40;52.20
41116;DHT22;26861;51.824;4.682;2023-04-03T11:32:28;18.50;51.10
41116;DHT22;26861;51.824;4.682;2023-04-03T11:34:59;18.60;52.40
41116;DHT22;26861;51.824;4.682;2023-04-03T11:37:43;18.60;52.20
41116;DHT22;26861;51.824;4.682;2023-04-03T11:42:54;18.80;51.20
41116;DHT22;26861;51.824;4.682;2023-04-03T11:48:47;18.90;51.60
41116;DHT22;26861;51.824;4.682;2023-04-03T11:53:44;19.00;51.20
41116;DHT22;26861;51.824;4.682;2023-04-03T12:04:13;19.30;50.40
41116;DHT22;26861;51.824;4.682;2023-04-03T12:06:47;19.30;50.30
41116;DHT22;26861;51.824;4.682;2023-04-03T12:09:54;19.40;51.10
41116;DHT22;26861;51.824;4.682;2023-04-03T12:12:35;19.30;50.90
41116;DHT22;26861;51.824;4.682;2023-04-03T12:15:43;19.40;51.10
41116;DHT22;26861;51.824;4.682;2023-04-03T12:18:53;19.60;49.20
41116;DHT22;26861;51.824;4.682;2023-04-03T12:22:13;19.60;49.90
41116;DHT22;26861;51.824;4.682;2023-04-03T12:24:38;19.70;49.10
41116;DHT22;26861;51.824;4.682;2023-04-03T12:27:17;19.80;49.70
41116;DHT22;26861;51.824;4.682;2023-04-03T12:30:05;19.80;49.60
41116;DHT22;26861;51.824;4.682;2023-04-03T12:35:19;19.90;49.60
41116;DHT22;26861;51.824;4.682;2023-04-03T12:40:57;20.00;49.50
41116;DHT22;26861;51.824;4.682;2023-04-03T12:48:49;20.10;49.40
41116;DHT22;26861;51.824;4.682;2023-04-03T12:51:26;20.20;49.50
41116;DHT22;26861;51.824;4.682;2023-04-03T12:54:00;20.30;47.90
41116;DHT22;26861;51.824;4.682;2023-04-03T12:56:29;20.30;48.20
41116;DHT22;26861;51.824;4.682;2023-04-03T12:59:25;20.40;47.60
41116;DHT22;26861;51.824;4.682;2023-04-03T13:01:58;20.40;48.40
41116;DHT22;26861;51.824;4.682;2023-04-03T13:04:26;20.50;47.90
41116;DHT22;26861;51.824;4.682;2023-04-03T13:06:52;20.50;47.80
41116;DHT22;26861;51.824;4.682;2023-04-03T13:09:22;20.50;48.00
41116;DHT22;26861;51.824;4.682;2023-04-03T13:11:56;20.60;48.00
41116;DHT22;26861;51.824;4.682;2023-04-03T13:14:25;20.60;47.80
41116;DHT22;26861;51.824;4.682;2023-04-03T13:17:13;20.70;47.40
41116;DHT22;26861;51.824;4.682;2023-04-03T13:19:41;20.70;48.00
41116;DHT22;26861;51.824;4.682;2023-04-03T13:24:53;20.70;48.00
41116;DHT22;26861;51.824;4.682;2023-04-03T13:27:19;20.70;48.00
41116;DHT22;26861;51.824;4.682;2023-04-03T13:29:51;20.80;47.60
41116;DHT22;26861;51.824;4.682;2023-04-03T13:32:21;20.90;47.10
41116;DHT22;26861;51.824;4.682;2023-04-03T13:34:48;20.90;47.50
41116;DHT22;26861;51.824;4.682;2023-04-03T13:37:26;20.90;47.90
41116;DHT22;26861;51.824;4.682;2023-04-03T13:42:34;21.00;47.70
41116;DHT22;26861;51.824;4.682;2023-04-03T13:45:26;21.10;47.10
41116;DHT22;26861;51.824;4.682;2023-04-03T13:48:17;21.10;47.50
41116;DHT22;26861;51.824;4.682;2023-04-03T13:50:57;21.20;46.20
41116;DHT22;26861;51.824;4.682;2023-04-03T13:53:25;21.20;46.30
41116;DHT22;26861;51.824;4.682;2023-04-03T13:55:58;21.20;46.90
41116;DHT22;26861;51.824;4.682;2023-04-03T13:58:30;21.20;47.60
41116;DHT22;26861;51.824;4.682;2023-04-03T14:06:11;21.30;46.20
41116;DHT22;26861;51.824;4.682;2023-04-03T14:08:38;21.40;46.40
41116;DHT22;26861;51.824;4.682;2023-04-03T14:11:04;21.30;46.20
41116;DHT22;26861;51.824;4.682;2023-04-03T14:13:31;21.40;46.20
41116;DHT22;26861;51.824;4.682;2023-04-03T14:15:57;21.40;46.40
41116;DHT22;26861;51.824;4.682;2023-04-03T14:18:23;21.40;46.20
41116;DHT22;26861;51.824;4.682;2023-04-03T14:20:50;21.50;46.10
41116;DHT22;26861;51.824;4.682;2023-04-03T14:23:16;21.50;46.30
41116;DHT22;26861;51.824;4.682;2023-04-03T14:25:42;21.50;45.00
41116;DHT22;26861;51.824;4.682;2023-04-03T14:28:18;21.50;45.10
41116;DHT22;26861;51.824;4.682;2023-04-03T14:30:45;21.50;46.00
41116;DHT22;26861;51.824;4.682;2023-04-03T14:33:16;21.60;45.80
41116;DHT22;26861;51.824;4.682;2023-04-03T14:35:43;21.50;45.00
41116;DHT22;26861;51.824;4.682;2023-04-03T14:38:35;21.50;45.60
41116;DHT22;26861;51.824;4.682;2023-04-03T14:41:01;21.50;46.50
41116;DHT22;26861;51.824;4.682;2023-04-03T14:43:27;21.50;46.30
41116;DHT22;26861;51.824;4.682;2023-04-03T14:45:54;21.50;45.80
41116;DHT22;26861;51.824;4.682;2023-04-03T14:48:23;21.50;45.20
41116;DHT22;26861;51.824;4.682;2023-04-03T14:50:51;21.50;44.70
41116;DHT22;26861;51.824;4.682;2023-04-03T14:53:18;21.50;44.60
41116;DHT22;26861;51.824;4.682;2023-04-03T14:55:49;21.50;44.40
41116;DHT22;26861;51.824;4.682;2023-04-03T14:58:18;21.40;44.10
41116;DHT22;26861;51.824;4.682;2023-04-03T15:00:45;21.30;43.60
41116;DHT22;26861;51.824;4.682;2023-04-03T15:03:14;21.30;43.80
41116;DHT22;26861;51.824;4.682;2023-04-03T15:05:41;21.30;44.00
41116;DHT22;26861;51.824;4.682;2023-04-03T15:08:23;21.20;43.50
41116;DHT22;26861;51.824;4.682;2023-04-03T15:10:51;21.20;43.50
41116;DHT22;26861;51.824;4.682;2023-04-03T15:13:21;21.10;43.90
41116;DHT22;26861;51.824;4.682;2023-04-03T15:15:49;21.20;44.40
41116;DHT22;26861;51.824;4.682;2023-04-03T15:18:21;21.20;44.20
41116;DHT22;26861;51.824;4.682;2023-04-03T15:20:47;21.20;44.20
41116;DHT22;26861;51.824;4.682;2023-04-03T15:23:15;21.10;43.70
41116;DHT22;26861;51.824;4.682;2023-04-03T15:25:43;21.10;42.90
41116;DHT22;26861;51.824;4.682;2023-04-03T15:28:22;21.00;43.40
41116;DHT22;26861;51.824;4.682;2023-04-03T15:30:49;20.90;42.70
41116;DHT22;26861;51.824;4.682;2023-04-03T15:33:16;20.90;44.10
41116;DHT22;26861;51.824;4.682;2023-04-03T15:35:42;20.80;42.40
41116;DHT22;26861;51.824;4.682;2023-04-03T15:38:08;20.60;42.40
41116;DHT22;26861;51.824;4.682;2023-04-03T15:40:34;20.80;44.00
41116;DHT22;26861;51.824;4.682;2023-04-03T15:43:00;20.80;43.50
41116;DHT22;26861;51.824;4.682;2023-04-03T15:45:29;20.70;44.00
41116;DHT22;26861;51.824;4.682;2023-04-03T15:47:56;20.80;44.10
41116;DHT22;26861;51.824;4.682;2023-04-03T15:50:23;20.70;44.10
41116;DHT22;26861;51.824;4.682;2023-04-03T15:52:50;20.70;44.60
41116;DHT22;26861;51.824;4.682;2023-04-03T15:55:20;20.60;45.10
41116;DHT22;26861;51.824;4.682;2023-04-03T15:57:46;20.60;45.40
41116;DHT22;26861;51.824;4.682;2023-04-03T16:00:13;20.50;45.50
41116;DHT22;26861;51.824;4.682;2023-04-03T16:02:40;20.40;46.20
41116;DHT22;26861;51.824;4.682;2023-04-03T16:05:06;20.30;45.90
41116;DHT22;26861;51.824;4.682;2023-04-03T16:07:32;20.30;46.00
41116;DHT22;26861;51.824;4.682;2023-04-03T16:09:58;20.30;46.20
41116;DHT22;26861;51.824;4.682;2023-04-03T16:12:24;20.30;46.40
41116;DHT22;26861;51.824;4.682;2023-04-03T16:14:50;20.20;46.80
41116;DHT22;26861;51.824;4.682;2023-04-03T16:17:15;20.10;47.00
41116;DHT22;26861;51.824;4.682;2023-04-03T16:19:41;20.10;45.50
41116;DHT22;26861;51.824;4.682;2023-04-03T16:22:07;20.10;46.10
41116;DHT22;26861;51.824;4.682;2023-04-03T16:24:33;20.10;46.60
41116;DHT22;26861;51.824;4.682;2023-04-03T16:27:01;20.00;47.10
41116;DHT22;26861;51.824;4.682;2023-04-03T16:29:26;20.00;47.50
41116;DHT22;26861;51.824;4.682;2023-04-03T16:31:52;20.00;45.90
41116;DHT22;26861;51.824;4.682;2023-04-03T16:34:18;19.90;47.00
41116;DHT22;26861;51.824;4.682;2023-04-03T16:36:43;19.90;47.10
41116;DHT22;26861;51.824;4.682;2023-04-03T16:39:09;19.80;47.60
41116;DHT22;26861;51.824;4.682;2023-04-03T16:41:35;19.80;48.10
41116;DHT22;26861;51.824;4.682;2023-04-03T16:44:01;19.70;48.30
41116;DHT22;26861;51.824;4.682;2023-04-03T16:46:26;19.60;48.40
41116;DHT22;26861;51.824;4.682;2023-04-03T16:48:52;19.60;48.50
41116;DHT22;26861;51.824;4.682;2023-04-03T16:51:18;19.50;48.90
41116;DHT22;26861;51.824;4.682;2023-04-03T16:53:43;19.50;48.70
41116;DHT22;26861;51.824;4.682;2023-04-03T16:56:09;19.50;48.60
41116;DHT22;26861;51.824;4.682;2023-04-03T16:58:35;19.40;49.00
41116;DHT22;26861;51.824;4.682;2023-04-03T17:01:15;19.40;49.00
41116;DHT22;26861;51.824;4.682;2023-04-03T17:03:41;19.30;49.00
41116;DHT22;26861;51.824;4.682;2023-04-03T17:06:07;19.30;49.40
41116;DHT22;26861;51.824;4.682;2023-04-03T17:08:33;19.30;50.00
41116;DHT22;26861;51.824;4.682;2023-04-03T17:10:59;19.20;49.40
41116;DHT22;26861;51.824;4.682;2023-04-03T17:13:25;19.20;49.40
41116;DHT22;26861;51.824;4.682;2023-04-03T17:15:57;19.10;48.90
41116;DHT22;26861;51.824;4.682;2023-04-03T17:18:23;19.00;49.40
41116;DHT22;26861;51.824;4.682;2023-04-03T17:20:49;19.00;49.60
41116;DHT22;26861;51.824;4.682;2023-04-03T17:23:15;18.90;49.60
41116;DHT22;26861;51.824;4.682;2023-04-03T17:25:41;18.80;49.70
41116;DHT22;26861;51.824;4.682;2023-04-03T17:28:07;18.70;49.80
41116;DHT22;26861;51.824;4.682;2023-04-03T17:30:32;18.70;50.60
41116;DHT22;26861;51.824;4.682;2023-04-03T17:32:58;18.70;50.20